Time;durP1;ratioP1;P1;durP2;ratioP2;P2;SDS_P1;SDS_P2;PMS_P1;PMS_P2;Temp;Humidity;BMP_temperature;BMP_pressure;BME280_temperature;BME280_humidity;BME280_pressure;Samples;Min_cycle;Max_cycle;Signal;HPM_P1;HPM_P2
2024/02/15 00:02:23;;;;;;;2.83;0.80;;;;;;;6.16;96.43;98321.81;6309805;28;20221;-54
2024/02/15 00:05:25;;;;;;;1.17;1.00;;;;;;;5.91;96.44;98324.13;6305001;28;20272;-54
2024/02/15 00:08:31;;;;;;;0.90;0.63;;;;;;;5.67;98.83;98325.41;6308527;28;20209;-56
2024/02/15 00:11:33;;;;;;;2.47;0.73;;;;;;;5.56;99.34;98323.28;6316806;28;20254;-54
2024/02/15 00:14:38;;;;;;;3.10;0.90;;;;;;;5.60;100.00;98318.41;6302073;28;20844;-55
2024/02/15 00:17:40;;;;;;;2.33;0.90;;;;;;;5.36;100.00;98319.69;6303291;28;20322;-55
2024/02/15 00:20:44;;;;;;;2.40;0.93;;;;;;;5.25;100.00;98302.53;6301314;28;20695;-55
2024/02/15 00:23:46;;;;;;;2.73;1.20;;;;;;;5.23;100.00;98309.84;6309877;28;20211;-55
2024/02/15 00:26:48;;;;;;;1.53;0.90;;;;;;;5.29;100.00;98317.00;6306159;28;20657;-55
2024/02/15 00:29:50;;;;;;;3.90;0.90;;;;;;;5.15;100.00;98317.91;6303390;28;20322;-55
2024/02/15 00:32:53;;;;;;;2.03;0.97;;;;;;;4.97;100.00;98318.34;6309915;28;20229;-55
2024/02/15 00:35:56;;;;;;;1.73;1.00;;;;;;;5.12;100.00;98313.84;6298616;28;20196;-52
2024/02/15 00:38:59;;;;;;;2.20;1.20;;;;;;;4.86;100.00;98322.34;6298749;28;20541;-53
2024/02/15 00:42:01;;;;;;;2.93;1.03;;;;;;;5.06;100.00;98326.97;6304243;28;20312;-55
2024/02/15 00:45:04;;;;;;;2.20;0.90;;;;;;;4.96;100.00;98313.28;6313037;28;20196;-55
2024/02/15 00:48:07;;;;;;;1.23;1.07;;;;;;;5.03;100.00;98322.09;6302497;28;20576;-54
2024/02/15 00:51:10;;;;;;;4.60;1.00;;;;;;;4.94;100.00;98318.75;6302242;28;20641;-54
2024/02/15 00:54:12;;;;;;;1.90;0.80;;;;;;;4.76;100.00;98310.47;6313342;28;20720;-54
2024/02/15 00:57:14;;;;;;;2.93;0.77;;;;;;;4.83;100.00;98320.09;6313174;28;20191;-56
2024/02/15 01:00:16;;;;;;;2.20;1.13;;;;;;;5.05;100.00;98325.34;6305857;28;20276;-54
2024/02/15 01:03:19;;;;;;;1.97;0.90;;;;;;;4.78;100.00;98327.75;6305635;28;20557;-55
2024/02/15 01:06:22;;;;;;;2.07;1.30;;;;;;;4.68;100.00;98334.31;6302806;28;20204;-55
2024/02/15 01:09:24;;;;;;;2.23;1.10;;;;;;;4.76;100.00;98336.84;6311145;28;20939;-55
2024/02/15 01:12:27;;;;;;;1.07;0.70;;;;;;;4.74;100.00;98334.41;6302591;28;20190;-54
2024/02/15 01:15:29;;;;;;;3.60;0.90;;;;;;;4.88;100.00;98330.91;6307169;28;20591;-54
2024/02/15 01:18:31;;;;;;;1.67;0.70;;;;;;;4.78;100.00;98334.84;6315748;28;20205;-55
2024/02/15 01:21:34;;;;;;;1.43;1.17;;;;;;;5.13;100.00;98325.22;6313611;28;20199;-56
2024/02/15 01:24:36;;;;;;;1.00;0.67;;;;;;;4.93;100.00;98325.06;6307990;28;20196;-55
2024/02/15 01:27:38;;;;;;;0.93;0.63;;;;;;;4.83;100.00;98325.38;6304073;28;20196;-54
2024/02/15 01:30:43;;;;;;;2.90;1.03;;;;;;;4.76;100.00;98315.75;6304969;28;20202;-54
2024/02/15 01:33:46;;;;;;;1.73;0.90;;;;;;;5.11;100.00;98306.09;6310798;28;20643;-55
2024/02/15 01:36:50;;;;;;;0.87;0.73;;;;;;;4.93;100.00;98298.66;6305761;28;20628;-54
2024/02/15 01:39:52;;;;;;;1.30;1.00;;;;;;;5.09;100.00;98308.94;6301007;28;20740;-54
2024/02/15 01:42:54;;;;;;;1.20;0.80;;;;;;;5.03;100.00;98314.16;6305782;28;20385;-55
2024/02/15 01:46:00;;;;;;;2.57;0.77;;;;;;;5.20;100.00;98310.22;6301254;28;20209;-56
2024/02/15 01:49:02;;;;;;;1.20;0.83;;;;;;;5.15;100.00;98310.81;6303770;28;20196;-56
2024/02/15 01:52:08;;;;;;;1.37;0.70;;;;;;;5.13;100.00;98306.72;6310107;28;20189;-55
2024/02/15 01:55:11;;;;;;;2.10;0.90;;;;;;;5.23;100.00;98301.94;6299496;28;20601;-54
2024/02/15 01:58:13;;;;;;;1.13;0.70;;;;;;;5.20;100.00;98298.84;6307866;28;20211;-56
2024/02/15 02:01:16;;;;;;;1.27;0.80;;;;;;;5.50;100.00;98288.88;6305971;28;20194;-53
2024/02/15 02:04:19;;;;;;;2.20;0.90;;;;;;;5.55;100.00;98297.03;6299240;28;20655;-56
2024/02/15 02:07:21;;;;;;;1.03;0.60;;;;;;;5.54;100.00;98290.94;6294202;28;20197;-55
2024/02/15 02:10:23;;;;;;;1.67;0.87;;;;;;;5.50;100.00;98294.97;6305980;28;20215;-55
2024/02/15 02:13:26;;;;;;;1.73;0.87;;;;;;;5.72;100.00;98289.63;6303083;28;20265;-55
2024/02/15 02:16:32;;;;;;;0.70;0.60;;;;;;;5.80;100.00;98289.47;6306967;28;20201;-53
2024/02/15 02:19:38;;;;;;;1.90;0.80;;;;;;;5.72;100.00;98284.34;6302922;28;20926;-52
2024/02/15 02:22:41;;;;;;;0.73;0.60;;;;;;;5.88;100.00;98278.72;6308393;28;20197;-56
2024/02/15 02:25:45;;;;;;;2.97;0.90;;;;;;;5.84;100.00;98280.94;6305817;28;20193;-56
2024/02/15 02:28:48;;;;;;;2.40;1.00;;;;;;;5.83;100.00;98283.78;6309907;28;20726;-55
2024/02/15 02:31:50;;;;;;;1.43;1.00;;;;;;;5.80;100.00;98282.34;6312660;28;20662;-54
2024/02/15 02:34:57;;;;;;;2.07;1.07;;;;;;;5.88;100.00;98284.81;6309259;28;20817;-56
2024/02/15 02:37:59;;;;;;;0.97;0.80;;;;;;;5.91;100.00;98287.13;6300959;28;20190;-53
2024/02/15 02:41:01;;;;;;;3.37;0.87;;;;;;;6.09;100.00;98293.69;6309926;28;20715;-54
2024/02/15 02:44:04;;;;;;;3.07;0.60;;;;;;;6.01;100.00;98291.19;6308163;28;20186;-56
2024/02/15 02:47:06;;;;;;;2.30;1.00;;;;;;;6.08;100.00;98290.22;6306556;28;20718;-53
2024/02/15 02:50:09;;;;;;;1.60;0.83;;;;;;;6.09;100.00;98296.34;6307345;28;20558;-55
2024/02/15 02:53:13;;;;;;;2.00;1.03;;;;;;;6.08;100.00;98289.41;6316150;28;20203;-53
2024/02/15 02:56:15;;;;;;;0.83;0.70;;;;;;;6.27;100.00;98287.84;6307005;28;20190;-56
2024/02/15 02:59:17;;;;;;;2.10;0.90;;;;;;;6.26;100.00;98294.97;6308013;28;20322;-56
2024/02/15 03:02:22;;;;;;;1.57;1.00;;;;;;;6.18;100.00;98284.56;6316493;28;20655;-55
2024/02/15 03:05:24;;;;;;;1.10;0.80;;;;;;;6.22;100.00;98287.63;6296276;28;20204;-56
2024/02/15 03:08:27;;;;;;;0.80;0.80;;;;;;;6.28;100.00;98282.34;6299284;28;20654;-55
2024/02/15 03:11:29;;;;;;;2.50;0.70;;;;;;;6.37;100.00;98288.28;6302777;28;20336;-56
2024/02/15 03:14:35;;;;;;;1.00;0.77;;;;;;;6.52;100.00;98285.47;6308599;28;20334;-55
2024/02/15 03:17:41;;;;;;;1.13;0.70;;;;;;;6.51;100.00;98291.78;6306856;28;20190;-56
2024/02/15 03:20:43;;;;;;;1.43;0.93;;;;;;;6.44;100.00;98283.81;6307659;28;20198;-55
2024/02/15 03:23:46;;;;;;;1.17;0.70;;;;;;;6.32;100.00;98291.53;6306659;28;20678;-56
2024/02/15 03:26:48;;;;;;;1.20;0.70;;;;;;;6.29;100.00;98289.28;6315517;28;20280;-54
2024/02/15 03:29:52;;;;;;;1.60;0.90;;;;;;;6.44;100.00;98297.03;6295664;28;20193;-55
2024/02/15 03:32:55;;;;;;;2.70;0.90;;;;;;;6.36;100.00;98284.84;6304784;28;20552;-56
2024/02/15 03:35:59;;;;;;;1.13;0.70;;;;;;;6.32;100.00;98282.78;6312165;28;20216;-56
2024/02/15 03:39:01;;;;;;;1.70;0.70;;;;;;;6.19;100.00;98283.53;6307902;28;20233;-52
2024/02/15 03:42:04;;;;;;;5.57;0.90;;;;;;;6.41;100.00;98284.22;6308681;28;20386;-55
2024/02/15 03:45:06;;;;;;;1.67;0.53;;;;;;;6.11;100.00;98254.66;6310246;28;20566;-56
2024/02/15 03:48:09;;;;;;;1.43;0.60;;;;;;;6.20;100.00;98275.41;6317731;28;20200;-56
2024/02/15 03:51:17;;;;;;;2.53;0.90;;;;;;;6.15;100.00;98277.00;6301270;28;20186;-55
2024/02/15 03:54:19;;;;;;;0.73;0.70;;;;;;;6.25;100.00;98280.09;6304888;28;20201;-56
2024/02/15 03:57:21;;;;;;;1.30;0.70;;;;;;;6.12;100.00;98283.53;6301166;28;20198;-55
2024/02/15 04:00:24;;;;;;;2.83;0.77;;;;;;;6.11;100.00;98286.38;6294894;28;20195;-56
2024/02/15 04:03:27;;;;;;;1.00;0.90;;;;;;;6.24;100.00;98282.94;6300194;28;20283;-55
2024/02/15 04:06:33;;;;;;;2.17;0.53;;;;;;;6.55;100.00;98282.41;6304765;28;20215;-56
2024/02/15 04:09:35;;;;;;;0.80;0.80;;;;;;;6.33;100.00;98277.28;6298210;28;20190;-55
2024/02/15 04:12:37;;;;;;;2.53;0.83;;;;;;;6.21;100.00;98273.59;6308471;28;20205;-52
2024/02/15 04:15:41;;;;;;;0.80;0.70;;;;;;;6.12;100.00;98266.84;6311533;28;20206;-55
2024/02/15 04:18:45;;;;;;;2.23;0.70;;;;;;;6.11;100.00;98278.44;6305781;28;20202;-55
2024/02/15 04:21:47;;;;;;;3.73;1.00;;;;;;;6.12;100.00;98280.88;6316311;28;20267;-54
2024/02/15 04:24:49;;;;;;;1.50;1.00;;;;;;;6.06;100.00;98271.09;6312095;28;20294;-56
2024/02/15 04:27:51;;;;;;;1.70;0.90;;;;;;;6.23;100.00;98268.91;6309303;28;20730;-56
2024/02/15 04:30:55;;;;;;;2.17;1.30;;;;;;;6.07;100.00;98264.81;6301872;28;20205;-56
2024/02/15 04:33:58;;;;;;;1.60;1.27;;;;;;;6.06;100.00;98265.81;6312421;28;20202;-54
2024/02/15 04:37:06;;;;;;;3.10;1.37;;;;;;;5.97;100.00;98252.97;6313060;28;20562;-55
2024/02/15 04:40:10;;;;;;;1.20;1.10;;;;;;;6.27;100.00;98258.75;6305048;28;20236;-56
2024/02/15 04:43:15;;;;;;;2.27;1.00;;;;;;;6.17;100.00;98262.59;6306523;28;20192;-56
2024/02/15 04:46:21;;;;;;;2.83;1.20;;;;;;;6.14;100.00;98259.53;6314012;28;20191;-56
2024/02/15 04:49:23;;;;;;;5.43;1.27;;;;;;;6.25;100.00;98261.56;6310437;28;20191;-55
2024/02/15 04:52:26;;;;;;;1.83;1.23;;;;;;;6.12;100.00;98262.38;6306575;28;20258;-55
2024/02/15 04:55:31;;;;;;;1.67;0.80;;;;;;;6.19;100.00;98263.19;6297088;28;20202;-56
2024/02/15 04:58:36;;;;;;;0.90;0.83;;;;;;;6.23;100.00;98260.97;6313611;28;20196;-55
2024/02/15 05:01:40;;;;;;;1.40;0.73;;;;;;;6.06;100.00;98244.66;6306971;28;20296;-56
2024/02/15 05:04:42;;;;;;;1.90;1.10;;;;;;;6.12;100.00;98261.56;6304167;28;20203;-54
2024/02/15 05:07:44;;;;;;;1.33;0.80;;;;;;;6.30;100.00;98268.91;6305407;28;20213;-54
2024/02/15 05:10:46;;;;;;;1.80;1.03;;;;;;;6.18;100.00;98258.94;6309885;28;20195;-56
2024/02/15 05:13:50;;;;;;;1.73;0.93;;;;;;;6.34;100.00;98265.69;6303152;28;20186;-55
2024/02/15 05:16:52;;;;;;;1.10;1.00;;;;;;;6.17;100.00;98267.88;6301734;28;20197;-52
2024/02/15 05:19:58;;;;;;;2.17;1.10;;;;;;;6.10;100.00;98264.38;6300398;28;20207;-56
2024/02/15 05:23:01;;;;;;;1.50;1.00;;;;;;;6.05;100.00;98263.34;6311577;28;20206;-56
2024/02/15 05:26:03;;;;;;;3.67;1.00;;;;;;;6.00;100.00;98263.13;6304836;28;20655;-55
2024/02/15 05:29:05;;;;;;;2.70;1.10;;;;;;;6.27;100.00;98270.16;6301476;28;20209;-54
2024/02/15 05:32:09;;;;;;;0.83;0.77;;;;;;;6.13;100.00;98268.47;6315028;28;20221;-54
2024/02/15 05:35:11;;;;;;;1.97;0.73;;;;;;;5.97;100.00;98247.69;6307793;28;20312;-56
2024/02/15 05:38:15;;;;;;;1.33;0.80;;;;;;;6.15;100.00;98274.38;6301781;28;20201;-54
2024/02/15 05:41:17;;;;;;;0.80;0.70;;;;;;;6.26;100.00;98284.41;6303857;28;20229;-55
2024/02/15 05:44:20;;;;;;;1.33;0.80;;;;;;;6.42;100.00;98284.03;6297838;28;20667;-55
2024/02/15 05:47:22;;;;;;;1.67;1.07;;;;;;;6.39;100.00;98283.59;6311171;28;20227;-55
2024/02/15 05:50:27;;;;;;;1.80;0.70;;;;;;;6.26;100.00;98287.03;6307213;28;20753;-52
2024/02/15 05:53:30;;;;;;;1.20;0.83;;;;;;;6.24;100.00;98286.41;6316870;28;20235;-56
2024/02/15 05:56:32;;;;;;;1.30;0.90;;;;;;;6.23;100.00;98283.97;6309639;28;20220;-55
2024/02/15 05:59:35;;;;;;;0.77;0.53;;;;;;;6.22;100.00;98292.94;6313108;28;20221;-56
2024/02/15 06:02:38;;;;;;;2.10;1.00;;;;;;;6.26;100.00;98284.41;6312217;28;20732;-54
2024/02/15 06:05:41;;;;;;;0.63;0.63;;;;;;;6.21;100.00;98292.13;6315319;28;20817;-54
2024/02/15 06:08:47;;;;;;;2.07;0.87;;;;;;;6.23;100.00;98294.56;6313813;28;20725;-56
2024/02/15 06:11:51;;;;;;;2.10;0.83;;;;;;;6.20;100.00;98301.03;6307260;28;20379;-56
2024/02/15 06:14:53;;;;;;;4.60;0.80;;;;;;;6.46;100.00;98295.84;6303008;28;20214;-56
2024/02/15 06:17:57;;;;;;;1.17;0.70;;;;;;;6.40;100.00;98303.75;6308531;28;20182;-53
2024/02/15 06:21:00;;;;;;;1.00;0.57;;;;;;;6.34;100.00;98297.44;6314681;28;20197;-56
2024/02/15 06:24:02;;;;;;;1.70;0.80;;;;;;;6.27;100.00;98301.91;6309110;28;20683;-56
2024/02/15 06:27:05;;;;;;;0.83;0.70;;;;;;;6.19;100.00;98302.06;6312184;28;20197;-55
2024/02/15 06:40:17;;;;;;;2.07;0.80;;;;;;;6.44;100.00;98318.22;6300729;28;20227;-54
2024/02/15 06:43:19;;;;;;;0.67;0.67;;;;;;;6.36;100.00;98324.53;6304240;28;20208;-55
2024/02/15 06:46:22;;;;;;;2.20;0.53;;;;;;;6.51;100.00;98320.91;6304640;28;20658;-56
2024/02/15 06:49:27;;;;;;;2.80;0.80;;;;;;;6.54;100.00;98331.06;6303114;28;20198;-56
2024/02/15 06:52:29;;;;;;;0.50;0.40;;;;;;;6.47;100.00;98334.53;6315271;28;20214;-55
2024/02/15 06:55:31;;;;;;;0.70;0.60;;;;;;;6.43;100.00;98329.81;6308048;28;20202;-56
2024/02/15 06:58:33;;;;;;;1.80;0.70;;;;;;;6.46;100.00;98327.59;6305137;28;20199;-56
2024/02/15 07:01:35;;;;;;;2.67;0.60;;;;;;;6.54;100.00;98326.59;6309640;28;20186;-56
2024/02/15 07:04:40;;;;;;;1.13;0.90;;;;;;;6.60;100.00;98328.47;6311583;28;20276;-56
2024/02/15 07:07:42;;;;;;;1.87;0.67;;;;;;;7.13;100.00;98325.03;6302124;28;20198;-55
2024/02/15 07:10:44;;;;;;;1.07;0.47;;;;;;;6.90;100.00;98328.91;6310364;28;20240;-55
2024/02/15 07:13:47;;;;;;;2.33;0.70;;;;;;;6.84;100.00;98327.06;6317681;28;20202;-56
2024/02/15 07:16:50;;;;;;;1.17;0.60;;;;;;;6.81;100.00;98331.97;6315752;28;20243;-53
2024/02/15 07:19:52;;;;;;;0.73;0.60;;;;;;;6.71;100.00;98316.47;6310059;28;20277;-56
2024/02/15 07:22:55;;;;;;;1.40;0.73;;;;;;;6.82;100.00;98329.09;6310222;28;20189;-55
2024/02/15 07:25:57;;;;;;;0.80;0.50;;;;;;;6.85;100.00;98336.66;6309033;28;20564;-54
2024/02/15 07:29:00;;;;;;;0.93;0.63;;;;;;;7.05;100.00;98335.88;6305589;28;20197;-54
2024/02/15 07:32:06;;;;;;;2.67;1.20;;;;;;;7.42;100.00;98329.94;6309357;28;20193;-55
2024/02/15 07:35:08;;;;;;;0.50;0.50;;;;;;;7.53;100.00;98327.66;6310211;28;20214;-56
2024/02/15 07:38:11;;;;;;;0.90;0.50;;;;;;;7.47;100.00;98330.13;6309019;28;20343;-55
2024/02/15 07:41:13;;;;;;;1.17;0.60;;;;;;;7.82;100.00;98329.03;6308841;28;20745;-56
2024/02/15 07:44:17;;;;;;;1.37;0.40;;;;;;;7.88;100.00;98328.22;6305139;28;20195;-56
2024/02/15 07:47:23;;;;;;;0.70;0.60;;;;;;;7.75;100.00;98329.88;6315182;28;20709;-56
2024/02/15 07:50:25;;;;;;;0.40;0.40;;;;;;;7.63;100.00;98330.72;6306997;28;20194;-56
2024/02/15 07:53:27;;;;;;;1.73;0.57;;;;;;;7.61;100.00;98336.22;6303071;28;20190;-56
2024/02/15 07:56:29;;;;;;;3.23;0.70;;;;;;;7.63;100.00;98347.44;6307085;28;20430;-55
2024/02/15 07:59:31;;;;;;;0.80;0.50;;;;;;;7.69;100.00;98337.88;6305965;28;20195;-55
2024/02/15 08:02:34;;;;;;;1.80;0.50;;;;;;;7.78;100.00;98341.09;6314791;28;20198;-56
2024/02/15 08:05:37;;;;;;;0.83;0.50;;;;;;;7.74;100.00;98316.84;6310705;28;21104;-56
2024/02/15 08:08:46;;;;;;;2.50;0.70;;;;;;;7.92;100.00;98334.72;6310215;28;20204;-55
2024/02/15 08:11:49;;;;;;;0.57;0.57;;;;;;;8.00;100.00;98334.50;6314317;28;20203;-57
2024/02/15 08:14:51;;;;;;;0.53;0.53;;;;;;;8.04;100.00;98334.91;6313755;28;20293;-57
2024/02/15 08:17:55;;;;;;;1.70;0.50;;;;;;;8.11;100.00;98339.16;6309211;28;20248;-57
2024/02/15 08:21:00;;;;;;;0.70;0.70;;;;;;;8.18;100.00;98328.53;6305038;28;20195;-55
2024/02/15 08:24:06;;;;;;;0.83;0.50;;;;;;;8.11;100.00;98298.53;6305057;28;20218;-56
2024/02/15 08:27:10;;;;;;;0.50;0.50;;;;;;;8.42;100.00;98327.84;6308286;28;20201;-57
2024/02/15 08:30:13;;;;;;;2.20;0.83;;;;;;;8.49;100.00;98319.84;6305072;28;20600;-55
2024/02/15 08:33:16;;;;;;;0.50;0.50;;;;;;;8.51;100.00;98320.44;6300459;28;20474;-57
2024/02/15 08:36:18;;;;;;;1.97;0.67;;;;;;;8.60;100.00;98326.31;6309028;28;20212;-56
2024/02/15 08:39:21;;;;;;;1.50;0.63;;;;;;;8.86;100.00;98330.66;6308456;28;20821;-56
2024/02/15 08:42:24;;;;;;;1.37;0.67;;;;;;;8.90;100.00;98323.88;6304894;28;20236;-54
2024/02/15 08:45:26;;;;;;;0.80;0.67;;;;;;;9.24;100.00;98322.59;6301609;28;20181;-56
2024/02/15 08:48:30;;;;;;;0.97;0.83;;;;;;;9.01;100.00;98301.91;6305976;28;20208;-55
2024/02/15 08:51:32;;;;;;;0.73;0.63;;;;;;;9.43;100.00;98326.13;6303044;28;20190;-54
2024/02/15 08:54:38;;;;;;;1.57;0.70;;;;;;;9.37;100.00;98327.81;6294995;28;20728;-55
2024/02/15 08:57:46;;;;;;;0.90;0.50;;;;;;;9.38;100.00;98321.47;6298970;28;20200;-56
2024/02/15 09:00:48;;;;;;;0.83;0.60;;;;;;;9.61;100.00;98315.53;6300629;28;20210;-59
2024/02/15 09:03:50;;;;;;;1.10;0.70;;;;;;;9.86;100.00;98320.81;6305865;28;20217;-56
2024/02/15 09:06:52;;;;;;;0.60;0.53;;;;;;;9.86;100.00;98304.03;6301089;28;20830;-55
2024/02/15 09:09:55;;;;;;;0.60;0.60;;;;;;;9.99;100.00;98320.63;6300751;28;20200;-55
2024/02/15 09:12:57;;;;;;;1.00;0.67;;;;;;;10.25;100.00;98316.09;6304321;28;20200;-55
2024/02/15 09:15:59;;;;;;;1.70;0.57;;;;;;;10.44;100.00;98308.88;6303846;28;20353;-56
2024/02/15 09:19:01;;;;;;;1.60;0.60;;;;;;;10.70;97.77;98307.72;6304550;28;20200;-57
2024/02/15 09:22:04;;;;;;;0.40;0.30;;;;;;;10.75;93.57;98299.84;6314463;28;20734;-56
2024/02/15 09:25:07;;;;;;;0.60;0.60;;;;;;;10.95;93.30;98308.34;6301921;28;20201;-56
2024/02/15 09:28:10;;;;;;;0.70;0.43;;;;;;;11.05;88.38;98310.47;6301854;28;20209;-56
2024/02/15 09:31:13;;;;;;;0.80;0.50;;;;;;;11.14;85.81;98308.28;6313082;28;20196;-56
2024/02/15 09:34:15;;;;;;;0.40;0.40;;;;;;;11.25;86.73;98312.81;6307953;28;20194;-55
2024/02/15 09:37:18;;;;;;;0.40;0.40;;;;;;;11.50;87.19;98308.06;6303750;28;20276;-55
2024/02/15 09:40:20;;;;;;;0.50;0.50;;;;;;;11.58;87.38;98305.06;6297236;28;20230;-56
2024/02/15 09:43:26;;;;;;;0.50;0.43;;;;;;;11.72;85.58;98304.78;6311240;28;20260;-55
2024/02/15 09:46:29;;;;;;;0.47;0.47;;;;;;;11.98;84.80;98301.66;6297235;28;20191;-56
2024/02/15 09:49:38;;;;;;;0.40;0.40;;;;;;;12.30;80.22;98296.69;6303274;28;20186;-56
2024/02/15 09:52:46;;;;;;;1.57;0.73;;;;;;;12.71;82.93;98291.28;6310560;28;20200;-55
2024/02/15 09:55:49;;;;;;;0.97;0.57;;;;;;;13.09;79.93;98294.09;6298907;28;20206;-56
2024/02/15 09:58:51;;;;;;;0.83;0.70;;;;;;;13.23;75.95;98288.47;6308198;28;20198;-56
2024/02/15 10:01:58;;;;;;;0.87;0.50;;;;;;;13.42;75.07;98279.94;6321647;28;20213;-55
2024/02/15 10:05:00;;;;;;;0.90;0.77;;;;;;;13.67;73.75;98284.84;6307343;28;20194;-56
2024/02/15 10:08:03;;;;;;;0.90;0.60;;;;;;;13.70;70.97;98277.38;6315221;28;20186;-54
2024/02/15 10:11:08;;;;;;;0.70;0.57;;;;;;;13.97;73.35;98280.13;6305071;28;20191;-55
2024/02/15 10:14:11;;;;;;;0.40;0.40;;;;;;;14.06;66.51;98281.34;6306687;28;20198;-54
2024/02/15 10:17:17;;;;;;;0.53;0.47;;;;;;;14.11;66.69;98268.81;6313483;28;20635;-55
2024/02/15 10:20:19;;;;;;;0.73;0.47;;;;;;;14.34;67.39;98280.31;6313544;28;20273;-55
2024/02/15 10:23:21;;;;;;;0.77;0.50;;;;;;;14.51;63.59;98269.53;6306527;28;20665;-56
2024/02/15 10:26:23;;;;;;;0.40;0.40;;;;;;;14.63;62.73;98262.97;6310306;28;20194;-56
2024/02/15 10:29:26;;;;;;;0.67;0.57;;;;;;;14.67;61.68;98263.25;6313571;28;20236;-56
2024/02/15 10:32:35;;;;;;;0.77;0.40;;;;;;;14.71;63.54;98265.19;6304446;28;20233;-56
2024/02/15 10:35:37;;;;;;;0.90;0.50;;;;;;;14.59;62.23;98266.41;6306717;28;20230;-56
2024/02/15 10:38:40;;;;;;;0.60;0.50;;;;;;;14.38;61.10;98265.34;6309719;28;20240;-56
2024/02/15 10:41:47;;;;;;;2.30;0.40;;;;;;;14.36;63.13;98262.91;6309526;28;20240;-55
2024/02/15 10:44:52;;;;;;;0.40;0.37;;;;;;;14.28;62.63;98262.56;6303351;28;20761;-56
2024/02/15 10:47:55;;;;;;;0.70;0.50;;;;;;;14.20;63.50;98251.22;6308677;28;20256;-56
2024/02/15 10:51:00;;;;;;;0.60;0.43;;;;;;;14.07;62.60;98232.84;6300276;28;20290;-55
2024/02/15 10:54:03;;;;;;;0.93;0.40;;;;;;;14.30;64.64;98242.50;6298014;28;20335;-56
2024/02/15 10:57:06;;;;;;;0.80;0.60;;;;;;;14.42;62.86;98237.78;6309000;28;20206;-56
2024/02/15 11:00:19;;;;;;;0.37;0.33;;;;;;;14.75;60.16;98243.22;6311044;28;20273;-55
2024/02/15 11:03:35;;;;;;;1.50;0.60;;;;;;;14.83;61.46;98211.38;6300876;28;20194;-56
2024/02/15 11:06:41;;;;;;;1.13;0.80;;;;;;;15.18;61.26;98221.56;6316133;28;20206;-55
2024/02/15 11:09:44;;;;;;;0.40;0.40;;;;;;;15.15;59.37;98189.06;6310665;28;20198;-55
2024/02/15 11:12:47;;;;;;;1.53;0.73;;;;;;;15.51;60.27;98219.59;6310365;28;20195;-56
2024/02/15 11:15:53;;;;;;;0.70;0.53;;;;;;;15.26;58.70;98212.22;6305306;28;20198;-55
2024/02/15 11:18:55;;;;;;;0.80;0.50;;;;;;;15.00;59.01;98211.25;6314862;28;20190;-55
2024/02/15 11:21:58;;;;;;;0.87;0.70;;;;;;;14.96;59.30;98204.75;6306376;28;20190;-55
2024/02/15 11:25:00;;;;;;;0.60;0.60;;;;;;;15.14;59.76;98209.72;6312327;28;20244;-54
2024/02/15 11:28:21;;;;;;;0.77;0.60;;;;;;;15.42;58.78;98205.88;6313998;28;20730;-56
2024/02/15 11:31:55;;;;;;;0.60;0.60;;;;;;;15.13;60.60;98200.06;6311031;28;20187;-56
2024/02/15 11:35:10;;;;;;;1.10;1.00;;;;;;;15.02;60.99;98194.88;6304439;28;20240;-56
2024/02/15 11:38:28;;;;;;;1.40;0.90;;;;;;;14.99;61.57;98204.25;6306419;28;20230;-56
2024/02/15 11:41:30;;;;;;;0.87;0.60;;;;;;;15.09;61.54;98207.00;6311625;28;20249;-56
2024/02/15 11:44:32;;;;;;;1.67;0.77;;;;;;;15.02;58.64;98171.53;6309061;28;20288;-56
2024/02/15 11:47:39;;;;;;;1.23;0.80;;;;;;;14.98;61.14;98208.00;6308905;28;20194;-55
2024/02/15 11:50:42;;;;;;;2.33;1.40;;;;;;;14.88;60.13;98194.53;6303480;28;20281;-56
2024/02/15 11:53:45;;;;;;;2.73;1.30;;;;;;;15.01;60.13;98209.34;6313382;28;20194;-56
2024/02/15 11:56:54;;;;;;;1.33;0.93;;;;;;;15.09;60.09;98206.22;6307392;28;20212;-56
2024/02/15 12:20:25;;;;;;;1.67;0.90;;;;;;;15.42;59.60;98178.25;6308543;28;20194;-55
2024/02/15 12:23:30;;;;;;;2.47;0.97;;;;;;;15.33;59.07;98179.78;6300631;28;20229;-55
2024/02/15 12:26:34;;;;;;;2.67;1.13;;;;;;;15.51;57.62;98159.72;6311692;28;20226;-56
2024/02/15 12:29:37;;;;;;;1.07;0.90;;;;;;;15.34;57.71;98171.47;6308711;28;20281;-56
2024/02/15 12:32:39;;;;;;;1.50;1.03;;;;;;;15.26;57.72;98163.09;6304563;28;20195;-55
2024/02/15 12:35:42;;;;;;;1.30;0.90;;;;;;;15.50;56.85;98166.97;6301913;28;20282;-55
2024/02/15 12:38:45;;;;;;;2.53;0.80;;;;;;;15.23;57.27;98153.69;6311820;28;20561;-56
2024/02/15 12:41:51;;;;;;;2.47;1.10;;;;;;;15.06;57.77;98164.59;6307737;28;20229;-54
2024/02/15 12:44:54;;;;;;;1.73;1.10;;;;;;;14.94;58.09;98158.63;6308671;28;20190;-56
2024/02/15 12:47:57;;;;;;;1.77;1.30;;;;;;;15.04;58.22;98157.88;6316880;28;20190;-57
2024/02/15 12:51:13;;;;;;;2.60;1.27;;;;;;;15.04;58.67;98156.00;6307505;28;20541;-56
2024/02/15 12:54:17;;;;;;;2.00;1.47;;;;;;;15.01;59.54;98153.81;6305663;28;20183;-56
2024/02/15 12:57:20;;;;;;;2.43;1.63;;;;;;;15.19;59.56;98148.03;6308587;28;20202;-55
2024/02/15 13:00:35;;;;;;;2.60;1.90;;;;;;;15.33;58.68;98142.22;6312256;28;20190;-55
2024/02/15 13:03:38;;;;;;;3.53;2.90;;;;;;;14.93;62.00;98140.91;6308225;28;20191;-56
2024/02/15 13:06:40;;;;;;;4.00;2.97;;;;;;;14.53;63.38;98147.59;6302665;28;20195;-54
2024/02/15 13:09:42;;;;;;;5.97;2.60;;;;;;;14.30;64.87;98145.19;6297793;28;20260;-57
2024/02/15 13:12:46;;;;;;;4.23;2.93;;;;;;;14.10;66.08;98146.63;6310478;28;20246;-56
2024/02/15 13:15:48;;;;;;;4.57;2.70;;;;;;;14.24;64.99;98144.34;6303323;28;20696;-54
2024/02/15 13:18:54;;;;;;;3.03;2.73;;;;;;;14.36;64.98;98150.34;6299462;28;20198;-55
2024/02/15 13:21:57;;;;;;;5.87;3.03;;;;;;;14.49;64.85;98143.00;6311195;28;20292;-55
2024/02/15 13:24:59;;;;;;;3.23;2.37;;;;;;;14.52;62.52;98137.91;6306070;28;20194;-56
2024/02/15 13:28:04;;;;;;;4.03;2.10;;;;;;;14.35;62.86;98134.53;6307348;28;20213;-57
2024/02/15 13:31:07;;;;;;;2.50;2.30;;;;;;;14.18;63.04;98137.31;6311186;28;20194;-54
2024/02/15 13:34:11;;;;;;;4.57;2.33;;;;;;;14.05;63.61;98137.72;6313697;28;20190;-55
2024/02/15 13:37:14;;;;;;;4.90;2.50;;;;;;;13.75;64.66;98127.50;6297955;28;20214;-54
2024/02/15 13:40:16;;;;;;;3.20;2.30;;;;;;;13.65;64.66;98120.97;6303249;28;20218;-56
2024/02/15 13:43:18;;;;;;;2.77;2.27;;;;;;;13.55;65.15;98122.72;6297610;28;20194;-56
2024/02/15 13:46:20;;;;;;;4.30;2.13;;;;;;;13.61;65.39;98124.41;6312111;28;20274;-56
2024/02/15 13:49:22;;;;;;;4.83;2.27;;;;;;;13.59;65.34;98119.28;6303381;28;20294;-56
2024/02/15 13:52:34;;;;;;;3.77;2.27;;;;;;;13.60;65.42;98128.94;6306288;28;20218;-57
2024/02/15 13:55:37;;;;;;;3.83;1.93;;;;;;;13.67;65.71;98124.19;6313250;28;20241;-56
2024/02/15 14:03:26;;;;;;;2.57;1.80;;;;;;;13.66;62.75;98124.47;6304540;28;20293;-55
2024/02/15 14:06:29;;;;;;;1.83;1.67;;;;;;;13.60;62.77;98120.13;6312869;28;20193;-57
2024/02/15 14:09:31;;;;;;;3.80;1.90;;;;;;;13.53;62.29;98117.59;6313308;28;20186;-54
2024/02/15 14:12:34;;;;;;;3.43;1.70;;;;;;;13.70;61.09;98128.25;6305799;28;20210;-56
2024/02/15 14:15:38;;;;;;;2.97;2.00;;;;;;;13.56;61.63;98124.34;6313863;28;20756;-55
2024/02/15 14:18:44;;;;;;;2.13;1.60;;;;;;;13.50;61.30;98120.81;6318915;28;20208;-56
2024/02/15 14:21:47;;;;;;;1.40;1.30;;;;;;;13.56;61.47;98121.66;6317008;28;20211;-56
2024/02/15 14:24:50;;;;;;;2.37;1.70;;;;;;;13.48;61.18;98116.75;6307474;28;20193;-56
2024/02/15 14:27:54;;;;;;;2.97;1.60;;;;;;;13.42;60.98;98122.03;6309852;28;20191;-54
2024/02/15 14:34:17;;;;;;;3.10;1.83;;;;;;;13.46;60.08;98129.56;6310670;28;20191;-56
2024/02/15 14:37:22;;;;;;;3.57;2.03;;;;;;;13.55;59.10;98125.41;6307123;28;20214;-57
2024/02/15 14:40:24;;;;;;;2.77;2.10;;;;;;;13.59;57.79;98121.16;6306908;28;20240;-54
2024/02/15 14:43:28;;;;;;;3.77;2.00;;;;;;;13.57;58.20;98118.72;6318358;28;20208;-55
2024/02/15 14:46:34;;;;;;;2.37;1.87;;;;;;;13.42;57.81;98111.31;6312102;28;20305;-56
2024/02/15 14:49:37;;;;;;;2.53;2.20;;;;;;;13.52;57.67;98124.03;6310341;28;20270;-54
2024/02/15 14:52:39;;;;;;;2.30;2.10;;;;;;;13.35;58.40;98115.25;6311376;28;20189;-56
2024/02/15 14:55:46;;;;;;;2.03;1.73;;;;;;;13.11;60.34;98118.13;6305515;28;20229;-56
2024/02/15 14:58:48;;;;;;;2.27;1.77;;;;;;;13.09;59.66;98108.72;6309084;28;20244;-56
2024/02/15 15:01:51;;;;;;;5.93;2.83;;;;;;;12.94;59.63;98095.97;6308138;28;20198;-56
2024/02/15 15:14:56;;;;;;;4.83;2.60;;;;;;;12.63;61.75;98118.78;6305330;28;20226;-59